This is the latest recevied weather packets stored in our database for station/object N2ZVN. If no packets are shown the sender has not sent any weather packets the latest 10 day(s).
| Time | Temp. | Humidity | Pressure | Rain* | Wind** | Luminosity | Snow |
|---|---|---|---|---|---|---|---|
| 1777927325 | 23.33° C | 32% | 1003.1 hPa | 0 mm | - | 163 W/m² | - |
| 1777927023 | 23.33° C | 32% | 1003.4 hPa | 0 mm | - | 121 W/m² | - |
| 1777926721 | 23.89° C | 32% | 1003.2 hPa | 0 mm | - | 104 W/m² | - |
| 1777926420 | 23.33° C | 34% | 1003.5 hPa | 0 mm | - | 124 W/m² | - |
| 1777926118 | 22.78° C | 33% | 1003.4 hPa | 0 mm | - | 157 W/m² | - |
| 1777925814 | 22.78° C | 33% | 1003.6 hPa | 0 mm | - | 194 W/m² | - |
| 1777925512 | 22.78° C | 33% | 1003.5 hPa | 0 mm | - | 96 W/m² | - |
| 1777925209 | 22.78° C | 32% | 1003.7 hPa | 0 mm | - | 262 W/m² | - |
| 1777924906 | 23.33° C | 32% | 1003.4 hPa | 0 mm | - | 475 W/m² | - |
| 1777924602 | 23.33° C | 36% | 1003.8 hPa | 0 mm | - | 251 W/m² | - |
| 1777924298 | 22.78° C | 35% | 1003.9 hPa | 0 mm | - | 79 W/m² | - |
| 1777923995 | 22.78° C | 34% | 1003.9 hPa | 0 mm | - | 501 W/m² | - |
| 1777923691 | 23.33° C | 35% | 1004 hPa | 0 mm | - | 540 W/m² | - |
| 1777923387 | 23.33° C | 33% | 1004.1 hPa | 0 mm | - | 492 W/m² | - |
| 1777923086 | 22.22° C | 36% | 1004.1 hPa | 0 mm | - | 552 W/m² | - |
| 1777922783 | 22.22° C | 36% | 1004.3 hPa | 0 mm | - | 666 W/m² | - |
| 1777922481 | 22.78° C | 34% | 1004.4 hPa | 0 mm | - | 287 W/m² | - |
| 1777922180 | 22.22° C | 36% | 1004.3 hPa | 0 mm | - | 339 W/m² | - |
| 1777921875 | 21.67° C | 37% | 1004.5 hPa | 0 mm | - | 515 W/m² | - |
| 1777921572 | 22.22° C | 35% | 1004.5 hPa | 0 mm | - | 343 W/m² | - |
| 1777921268 | 22.22° C | 37% | 1004.6 hPa | 0 mm | - | 350 W/m² | - |
| 1777920965 | 22.78° C | 35% | 1004.3 hPa | 0 mm | - | 473 W/m² | - |
| 1777920661 | 22.22° C | 37% | 1004.6 hPa | 0 mm | - | 653 W/m² | - |
| 1777920357 | 21.67° C | 40% | 1004.8 hPa | 0 mm | - | 692 W/m² | - |
| 1777920052 | 21.67° C | 38% | 1004.9 hPa | 0 mm | - | 496 W/m² | - |
* Rain latest hour (hover to see other rain measurements)
** Current wind speed in m/s (hover to see current wind gust speed)